createdAt,value
2017-12-25T00:00:08.930Z,10.26
2017-12-25T00:01:08.946Z,10.28
2017-12-25T00:02:08.691Z,10.28
2017-12-25T00:03:08.704Z,10.25
2017-12-25T00:04:08.713Z,10.26
2017-12-25T00:05:08.453Z,10.23
2017-12-25T00:06:08.793Z,10.26
2017-12-25T00:07:08.761Z,10.3
2017-12-25T00:08:08.773Z,10.26
2017-12-25T00:09:08.793Z,10.3
2017-12-25T00:10:08.816Z,10.28
2017-12-25T00:11:08.822Z,10.23
2017-12-25T00:12:08.833Z,10.28
2017-12-25T00:13:08.847Z,10.28
2017-12-25T00:14:08.863Z,10.28
2017-12-25T00:15:08.882Z,10.26
2017-12-25T00:16:09.169Z,10.28
2017-12-25T00:17:08.909Z,10.25
2017-12-25T00:18:08.920Z,10.2
2017-12-25T00:19:08.934Z,10.28
2017-12-25T00:20:09.239Z,10.28
2017-12-25T00:21:08.971Z,10.28
2017-12-25T00:22:08.979Z,10.28
2017-12-25T00:23:08.993Z,10.25
2017-12-25T00:24:09.282Z,10.33
2017-12-25T00:25:09.025Z,10.28
2017-12-25T00:26:09.314Z,10.25
2017-12-25T00:27:09.332Z,10.28
2017-12-25T00:28:09.085Z,10.26
2017-12-25T00:29:09.360Z,10.3
2017-12-25T00:30:09.096Z,10.25
2017-12-25T00:31:09.398Z,10.23
2017-12-25T00:32:09.399Z,10.26
2017-12-25T00:33:08.865Z,10.23
2017-12-25T00:34:08.880Z,10.26
2017-12-25T00:35:09.174Z,10.33
2017-12-25T00:36:09.463Z,10.23
2017-12-25T00:37:09.478Z,10.3
2017-12-25T00:38:09.213Z,10.23
2017-12-25T00:39:09.501Z,10.25
2017-12-25T00:40:09.309Z,10.22
2017-12-25T00:41:09.536Z,10.23
2017-12-25T00:42:09.550Z,10.19
2017-12-25T00:43:09.286Z,10.25
2017-12-25T00:44:09.304Z,10.23
2017-12-25T00:45:09.328Z,10.15
2017-12-25T00:46:09.337Z,10.19
2017-12-25T00:47:09.345Z,10.16
2017-12-25T00:48:09.632Z,10.3
2017-12-25T00:49:09.652Z,10.22
2017-12-25T00:50:09.665Z,10.16
2017-12-25T00:51:09.403Z,10.26
2017-12-25T00:52:09.420Z,10.22
2017-12-25T00:53:09.721Z,10.26
2017-12-25T00:54:09.773Z,10.19
2017-12-25T00:55:09.461Z,10.1
2017-12-25T00:56:09.209Z,10.26
2017-12-25T00:57:09.767Z,10.25
2017-12-25T00:58:09.507Z,10.19
2017-12-25T00:59:09.796Z,10.2
2017-12-25T01:00:09.811Z,10.23
2017-12-25T01:01:09.330Z,10.15
2017-12-25T01:02:09.849Z,10.16
2017-12-25T01:03:09.862Z,10.13
2017-12-25T01:04:09.935Z,10.15
2017-12-25T01:05:09.886Z,10.25
2017-12-25T01:06:09.621Z,10.25
2017-12-25T01:07:09.643Z,10.16
2017-12-25T01:08:09.940Z,10.22
2017-12-25T01:09:09.674Z,10.25
2017-12-25T01:10:09.682Z,10.16
2017-12-25T01:11:09.748Z,10.13
2017-12-25T01:12:09.990Z,10.2
2017-12-25T01:13:10.021Z,10.19
2017-12-25T01:14:09.746Z,10.17
2017-12-25T01:15:09.753Z,10.13
2017-12-25T01:16:10.025Z,10.07
2017-12-25T01:17:10.066Z,10.17
2017-12-25T01:18:09.529Z,10.1
2017-12-25T01:19:09.547Z,10.16
2017-12-25T01:20:09.833Z,10.09
2017-12-25T01:21:09.892Z,10.15
2017-12-25T01:22:10.133Z,10.16
2017-12-25T01:23:10.149Z,10.17
2017-12-25T01:24:09.884Z,10.12
2017-12-25T01:25:10.175Z,10.17
2017-12-25T01:26:10.248Z,10.16
2017-12-25T01:27:09.667Z,10.12
2017-12-25T01:28:09.945Z,10.19
2017-12-25T01:29:10.233Z,10.13
2017-12-25T01:30:10.250Z,10.19
2017-12-25T01:31:09.990Z,10.15
2017-12-25T01:32:10.281Z,10.19
2017-12-25T01:33:10.294Z,10.13
2017-12-25T01:34:10.037Z,10.15
2017-12-25T01:35:10.057Z,10.16
2017-12-25T01:36:10.114Z,10.15
2017-12-25T01:37:10.360Z,10.13
2017-12-25T01:38:10.364Z,10.15
2017-12-25T01:39:09.842Z,10.25
2017-12-25T01:40:10.397Z,10.1
2017-12-25T01:41:10.136Z,10.16
2017-12-25T01:42:10.152Z,10.13
2017-12-25T01:43:10.438Z,10.13
2017-12-25T01:44:10.181Z,10.13
2017-12-25T01:45:10.477Z,10.12
2017-12-25T01:46:10.533Z,10.15
2017-12-25T01:47:10.506Z,10.17
2017-12-25T01:48:10.245Z,10.12
2017-12-25T01:49:10.528Z,10.16
2017-12-25T01:50:10.549Z,10.16
2017-12-25T01:51:10.608Z,10.17
2017-12-25T01:52:10.581Z,10.15
2017-12-25T01:53:10.584Z,10.16
2017-12-25T01:54:10.602Z,10.12
2017-12-25T01:55:10.621Z,10.15
2017-12-25T01:56:10.404Z,10.13
2017-12-25T01:57:10.645Z,10.16
2017-12-25T01:58:10.668Z,10.13
2017-12-25T01:59:10.397Z,10.1
2017-12-25T02:00:10.416Z,10.16
2017-12-25T02:01:10.751Z,10.13
2017-12-25T02:02:10.718Z,10.12
2017-12-25T02:03:10.458Z,10.16
2017-12-25T02:04:10.746Z,10.12
2017-12-25T02:05:10.759Z,10.22
2017-12-25T02:06:10.828Z,10.09
2017-12-25T02:07:10.523Z,10.13
2017-12-25T02:08:10.530Z,10.15
2017-12-25T02:09:10.861Z,10.15
2017-12-25T02:10:10.833Z,10.22
2017-12-25T02:11:10.859Z,10.15
2017-12-25T02:12:10.313Z,10.13
2017-12-25T02:13:10.885Z,10.22
2017-12-25T02:14:10.894Z,10.2
2017-12-25T02:15:10.360Z,10.1
2017-12-25T02:16:10.649Z,10.15
2017-12-25T02:17:10.939Z,10.09
2017-12-25T02:18:10.681Z,10.1
2017-12-25T02:19:10.413Z,10.09
2017-12-25T02:20:10.982Z,10.1
2017-12-25T02:21:10.717Z,10.09
2017-12-25T02:22:11.008Z,10.15
2017-12-25T02:23:10.472Z,10.12
2017-12-25T02:24:11.039Z,10.25
2017-12-25T02:25:10.835Z,10.07
2017-12-25T02:26:11.069Z,10.2
2017-12-25T02:27:10.803Z,10.13
2017-12-25T02:28:11.097Z,10.1
2017-12-25T02:29:11.186Z,10.15
2017-12-25T02:30:10.856Z,10.09
2017-12-25T02:31:11.142Z,10.15
2017-12-25T02:32:11.165Z,10.1
2017-12-25T02:33:11.185Z,10.15
2017-12-25T02:34:10.914Z,10.09
2017-12-25T02:35:10.649Z,10.1
2017-12-25T02:36:11.226Z,10.1
2017-12-25T02:37:11.226Z,10.05
2017-12-25T02:38:11.274Z,10.1
2017-12-25T02:39:11.258Z,10.07
2017-12-25T02:40:11.280Z,10.15
2017-12-25T02:41:11.287Z,10.16
2017-12-25T02:42:11.040Z,10.09
2017-12-25T02:43:11.054Z,10.13
2017-12-25T02:44:11.332Z,10.05
2017-12-25T02:45:11.341Z,10.1
2017-12-25T02:46:11.359Z,10.09
2017-12-25T02:47:11.109Z,10.1
2017-12-25T02:48:11.391Z,10.1
2017-12-25T02:49:11.408Z,10.09
2017-12-25T02:50:11.415Z,10.13
2017-12-25T02:51:11.432Z,10.1
2017-12-25T02:52:11.230Z,10.12
2017-12-25T02:53:11.460Z,10.04
2017-12-25T02:54:11.479Z,10.1
2017-12-25T02:55:11.218Z,10.16
2017-12-25T02:56:11.240Z,10.16
2017-12-25T02:57:11.247Z,10.09
2017-12-25T02:58:11.533Z,10.16
2017-12-25T02:59:11.551Z,10.07
2017-12-25T03:00:11.286Z,10.05
2017-12-25T03:01:11.300Z,9.98
2017-12-25T03:02:11.590Z,10.07
2017-12-25T03:03:11.603Z,10.04
2017-12-25T03:04:11.347Z,10.1
2017-12-25T03:05:11.639Z,10.1
2017-12-25T03:06:11.373Z,9.98
2017-12-25T03:07:11.117Z,10.07
2017-12-25T03:08:11.399Z,9.99
2017-12-25T03:09:11.694Z,10.09
2017-12-25T03:10:11.706Z,10.07
2017-12-25T03:11:11.721Z,10.02
2017-12-25T03:12:11.742Z,9.95
2017-12-25T03:13:11.753Z,10.05
2017-12-25T03:14:11.491Z,10.01
2017-12-25T03:15:11.503Z,10.07
2017-12-25T03:16:11.797Z,10.02
2017-12-25T03:17:11.532Z,9.99
2017-12-25T03:18:11.547Z,10.05
2017-12-25T03:19:11.849Z,10.04
2017-12-25T03:20:11.858Z,10.04
2017-12-25T03:21:11.314Z,10.04
2017-12-25T03:22:11.880Z,9.99
2017-12-25T03:23:11.346Z,9.97
2017-12-25T03:24:11.915Z,9.94
2017-12-25T03:25:11.927Z,9.97
2017-12-25T03:26:11.937Z,9.95
2017-12-25T03:27:11.401Z,9.97
2017-12-25T03:28:11.692Z,9.94
2017-12-25T03:29:11.983Z,9.97
2017-12-25T03:30:12.008Z,9.98
2017-12-25T03:31:12.022Z,9.97
2017-12-25T03:32:11.816Z,9.98
2017-12-25T03:33:12.049Z,9.99
2017-12-25T03:34:12.111Z,9.97
2017-12-25T03:35:12.068Z,9.97
2017-12-25T03:36:11.810Z,10.04
2017-12-25T03:37:11.825Z,9.91
2017-12-25T03:38:12.115Z,9.99
2017-12-25T03:39:11.857Z,9.94
2017-12-25T03:40:11.867Z,10.02
2017-12-25T03:41:12.160Z,9.95
2017-12-25T03:42:11.623Z,9.97
2017-12-25T03:43:12.190Z,9.97
2017-12-25T03:44:12.200Z,9.97
2017-12-25T03:45:11.940Z,9.95
2017-12-25T03:46:12.234Z,10.05
2017-12-25T03:47:12.250Z,10.02
2017-12-25T03:48:12.257Z,9.94
2017-12-25T03:49:11.998Z,10.01
2017-12-25T03:50:11.736Z,9.98
2017-12-25T03:51:12.304Z,10.02
2017-12-25T03:52:11.815Z,10.02
2017-12-25T03:53:11.796Z,9.94
2017-12-25T03:54:11.802Z,9.99
2017-12-25T03:55:12.361Z,9.99
2017-12-25T03:56:12.111Z,9.97
2017-12-25T03:57:12.447Z,9.94
2017-12-25T03:58:12.127Z,9.97
2017-12-25T03:59:12.418Z,9.94
2017-12-25T04:00:12.163Z,9.87
2017-12-25T04:01:12.456Z,9.97
2017-12-25T04:02:12.233Z,9.97
2017-12-25T04:03:12.220Z,9.97
2017-12-25T04:04:11.938Z,9.98
2017-12-25T04:05:12.230Z,9.94
2017-12-25T04:06:12.240Z,9.94
2017-12-25T04:07:12.307Z,9.95
2017-12-25T04:08:11.999Z,9.97
2017-12-25T04:09:12.562Z,9.91
2017-12-25T04:10:12.579Z,9.92
2017-12-25T04:11:12.598Z,9.97
2017-12-25T04:12:12.331Z,9.89
2017-12-25T04:13:12.621Z,9.99
2017-12-25T04:14:12.635Z,9.98
2017-12-25T04:15:12.646Z,9.98
2017-12-25T04:16:12.662Z,9.84
2017-12-25T04:17:12.769Z,9.97
2017-12-25T04:18:12.699Z,9.95
2017-12-25T04:19:12.430Z,9.95
2017-12-25T04:20:12.717Z,9.91
2017-12-25T04:21:12.461Z,9.95
2017-12-25T04:22:12.751Z,9.95
2017-12-25T04:23:12.486Z,9.94
2017-12-25T04:24:12.503Z,9.91
2017-12-25T04:25:12.520Z,9.97
2017-12-25T04:26:12.532Z,9.95
2017-12-25T04:27:12.555Z,9.92
2017-12-25T04:28:12.561Z,9.97
2017-12-25T04:29:12.847Z,9.91
2017-12-25T04:30:12.863Z,9.89
2017-12-25T04:31:12.603Z,9.95
2017-12-25T04:32:12.716Z,9.89
2017-12-25T04:33:12.910Z,9.92
2017-12-25T04:34:12.930Z,9.91
2017-12-25T04:35:12.659Z,9.86
2017-12-25T04:36:12.951Z,9.91
2017-12-25T04:37:13.017Z,9.94
2017-12-25T04:38:12.989Z,9.89
2017-12-25T04:39:12.721Z,9.92
2017-12-25T04:40:13.014Z,9.94
2017-12-25T04:41:13.020Z,9.92
2017-12-25T04:42:12.814Z,9.84
2017-12-25T04:43:13.056Z,9.84
2017-12-25T04:44:13.070Z,9.91
2017-12-25T04:45:13.083Z,9.8
2017-12-25T04:46:12.825Z,9.82
2017-12-25T04:47:13.163Z,9.91
2017-12-25T04:48:12.850Z,9.8
2017-12-25T04:49:13.140Z,9.83
2017-12-25T04:50:13.150Z,9.87
2017-12-25T04:51:13.174Z,9.82
2017-12-25T04:52:13.184Z,9.83
2017-12-25T04:53:13.198Z,9.83
2017-12-25T04:54:13.217Z,9.79
2017-12-25T04:55:13.156Z,9.82
2017-12-25T04:56:13.249Z,9.79
2017-12-25T04:57:12.980Z,9.82
2017-12-25T04:58:12.991Z,9.82
2017-12-25T04:59:13.280Z,9.79
2017-12-25T05:00:13.299Z,9.83
2017-12-25T05:01:13.039Z,9.83
2017-12-25T05:02:13.376Z,9.91
2017-12-25T05:03:13.070Z,9.82
2017-12-25T05:04:13.358Z,9.83
2017-12-25T05:05:13.093Z,9.87
2017-12-25T05:06:13.108Z,9.89
2017-12-25T05:07:13.181Z,9.82
2017-12-25T05:08:13.139Z,9.83
2017-12-25T05:09:13.153Z,9.92
2017-12-25T05:10:13.455Z,9.79
2017-12-25T05:11:13.180Z,9.8
2017-12-25T05:12:13.197Z,9.8
2017-12-25T05:13:13.211Z,9.8
2017-12-25T05:14:13.225Z,9.82
2017-12-25T05:15:13.509Z,9.83
2017-12-25T05:16:13.252Z,9.89
2017-12-25T05:17:13.592Z,9.8
2017-12-25T05:18:13.279Z,9.83
2017-12-25T05:19:13.295Z,9.83
2017-12-25T05:20:13.583Z,9.8
2017-12-25T05:21:13.611Z,9.79
2017-12-25T05:22:13.117Z,9.82
2017-12-25T05:23:13.630Z,9.87
2017-12-25T05:24:13.644Z,9.8
2017-12-25T05:25:13.385Z,9.82
2017-12-25T05:26:13.676Z,9.84
2017-12-25T05:27:13.403Z,9.84
2017-12-25T05:28:13.703Z,9.83
2017-12-25T05:29:13.713Z,9.84
2017-12-25T05:30:13.454Z,9.84
2017-12-25T05:31:13.745Z,9.84
2017-12-25T05:32:13.811Z,9.82
2017-12-25T05:33:13.218Z,9.86
2017-12-25T05:34:13.784Z,9.82
2017-12-25T05:35:13.523Z,9.82
2017-12-25T05:36:13.824Z,9.8
2017-12-25T05:37:13.278Z,9.8
2017-12-25T05:38:13.849Z,9.79
2017-12-25T05:39:13.582Z,9.8
2017-12-25T05:40:13.947Z,9.83
2017-12-25T05:41:13.611Z,9.83
2017-12-25T05:42:13.937Z,9.86
2017-12-25T05:43:13.915Z,9.79
2017-12-25T05:44:13.931Z,9.84
2017-12-25T05:45:13.946Z,9.83
2017-12-25T05:46:13.959Z,9.76
2017-12-25T05:47:13.971Z,9.8
2017-12-25T05:48:13.983Z,9.82
2017-12-25T05:49:14.000Z,9.8
2017-12-25T05:50:13.465Z,9.82
2017-12-25T05:51:14.032Z,9.72
2017-12-25T05:52:13.771Z,9.76
2017-12-25T05:53:14.064Z,9.79
2017-12-25T05:54:14.089Z,9.76
2017-12-25T05:55:14.118Z,9.8
2017-12-25T05:56:14.109Z,9.82
2017-12-25T05:57:13.840Z,9.73
2017-12-25T05:58:14.173Z,9.8
2017-12-25T05:59:14.148Z,9.76
2017-12-25T06:00:13.882Z,9.83
2017-12-25T06:01:13.903Z,9.74
2017-12-25T06:02:14.184Z,9.77
2017-12-25T06:03:14.216Z,9.77
2017-12-25T06:04:13.940Z,9.76
2017-12-25T06:05:14.229Z,9.79
2017-12-25T06:06:14.248Z,9.82
2017-12-25T06:07:14.261Z,9.76
2017-12-25T06:08:13.996Z,9.76
2017-12-25T06:09:14.295Z,9.76
2017-12-25T06:10:14.032Z,9.77
2017-12-25T06:11:14.318Z,9.69
2017-12-25T06:12:14.351Z,9.74
2017-12-25T06:13:14.344Z,9.74
2017-12-25T06:14:14.358Z,9.76
2017-12-25T06:15:14.380Z,9.76
2017-12-25T06:16:14.408Z,9.74
2017-12-25T06:17:14.122Z,9.82
2017-12-25T06:18:14.419Z,9.72
2017-12-25T06:19:14.438Z,9.76
2017-12-25T06:20:14.164Z,9.79
2017-12-25T06:21:14.455Z,9.77
2017-12-25T06:22:14.489Z,9.74
2017-12-25T06:23:14.211Z,9.79
2017-12-25T06:24:14.501Z,9.76
2017-12-25T06:25:14.240Z,9.86
2017-12-25T06:26:14.530Z,9.76
2017-12-25T06:27:14.268Z,9.84
2017-12-25T06:28:14.282Z,9.69
2017-12-25T06:29:14.303Z,9.69
2017-12-25T06:30:14.313Z,9.66
2017-12-25T06:31:14.597Z,9.64
2017-12-25T06:32:14.063Z,9.66
2017-12-25T06:33:14.359Z,9.69
2017-12-25T06:34:14.366Z,9.69
2017-12-25T06:35:14.663Z,9.68
2017-12-25T06:36:14.675Z,9.82
2017-12-25T06:37:14.690Z,9.79
2017-12-25T06:38:14.700Z,9.64
2017-12-25T06:39:14.440Z,9.61
2017-12-25T06:40:14.454Z,9.73
2017-12-25T06:41:14.743Z,9.69
2017-12-25T06:42:14.483Z,9.83
2017-12-25T06:43:14.773Z,9.66
2017-12-25T06:44:14.786Z,9.66
2017-12-25T06:45:14.249Z,9.82
2017-12-25T06:46:14.540Z,9.68
2017-12-25T06:47:14.837Z,9.76
2017-12-25T06:48:14.898Z,9.73
2017-12-25T06:49:14.583Z,9.77
2017-12-25T06:50:14.319Z,9.62
2017-12-25T06:51:14.892Z,9.79
2017-12-25T06:52:14.625Z,9.77
2017-12-25T06:53:14.962Z,9.62
2017-12-25T06:54:14.929Z,9.72
2017-12-25T06:55:14.389Z,9.72
2017-12-25T06:56:14.959Z,9.77
2017-12-25T06:57:14.696Z,9.66
2017-12-25T06:58:15.040Z,9.69
2017-12-25T06:59:14.726Z,9.68
2017-12-25T07:00:15.019Z,9.69
2017-12-25T07:01:14.480Z,9.77
2017-12-25T07:02:15.058Z,9.77
2017-12-25T07:03:15.113Z,9.68
2017-12-25T07:04:14.796Z,9.73
2017-12-25T07:05:15.082Z,9.76
2017-12-25T07:06:14.824Z,9.74
2017-12-25T07:07:14.838Z,9.69
2017-12-25T07:08:15.133Z,9.73
2017-12-25T07:09:15.143Z,9.68
2017-12-25T07:10:15.157Z,9.72
2017-12-25T07:11:14.898Z,9.66
2017-12-25T07:12:15.185Z,9.74
2017-12-25T07:13:14.925Z,9.68
2017-12-25T07:14:14.942Z,9.68
2017-12-25T07:15:15.230Z,9.65
2017-12-25T07:16:15.242Z,9.72
2017-12-25T07:17:15.256Z,9.69
2017-12-25T07:18:15.334Z,9.69
2017-12-25T07:19:15.287Z,9.77
2017-12-25T07:20:15.297Z,9.69
2017-12-25T07:21:15.042Z,9.66
2017-12-25T07:22:15.055Z,9.76
2017-12-25T07:23:15.392Z,9.69
2017-12-25T07:24:15.079Z,9.69
2017-12-25T07:25:15.380Z,9.69
2017-12-25T07:26:14.833Z,9.68
2017-12-25T07:27:15.126Z,9.69
2017-12-25T07:28:15.424Z,9.73
2017-12-25T07:29:14.879Z,9.68
2017-12-25T07:30:14.889Z,9.66
2017-12-25T07:31:15.458Z,9.66
2017-12-25T07:32:15.469Z,9.73
2017-12-25T07:33:15.589Z,9.73
2017-12-25T07:34:15.226Z,9.73
2017-12-25T07:35:15.516Z,9.69
2017-12-25T07:36:15.249Z,9.69
2017-12-25T07:37:15.539Z,9.69
2017-12-25T07:38:15.329Z,9.65
2017-12-25T07:39:15.569Z,9.66
2017-12-25T07:40:15.306Z,9.62
2017-12-25T07:41:15.326Z,9.66
2017-12-25T07:42:15.615Z,9.73
2017-12-25T07:43:15.627Z,9.68
2017-12-25T07:44:15.364Z,9.65
2017-12-25T07:45:15.382Z,9.68
2017-12-25T07:46:15.392Z,9.65
2017-12-25T07:47:15.133Z,9.73
2017-12-25T07:48:15.420Z,9.69
2017-12-25T07:49:15.712Z,9.64
2017-12-25T07:50:15.452Z,9.64
2017-12-25T07:51:15.738Z,9.72
2017-12-25T07:52:15.756Z,9.62
2017-12-25T07:53:15.537Z,9.73
2017-12-25T07:54:15.779Z,9.69
2017-12-25T07:55:15.794Z,9.66
2017-12-25T07:56:15.822Z,9.73
2017-12-25T07:57:15.550Z,9.73
2017-12-25T07:58:15.889Z,9.69
2017-12-25T07:59:15.861Z,9.73
2017-12-25T08:00:15.961Z,9.69
2017-12-25T08:01:15.880Z,9.66
2017-12-25T08:02:15.895Z,9.65
2017-12-25T08:03:15.963Z,9.65
2017-12-25T08:04:15.926Z,9.68
2017-12-25T08:05:15.944Z,9.68
2017-12-25T08:06:15.950Z,9.59
2017-12-25T08:07:15.690Z,9.68
2017-12-25T08:08:15.981Z,9.74
2017-12-25T08:09:15.997Z,9.76
2017-12-25T08:10:16.012Z,9.73
2017-12-25T08:11:15.746Z,9.79
2017-12-25T08:12:15.760Z,9.69
2017-12-25T08:13:15.824Z,9.66
2017-12-25T08:14:16.063Z,9.69
2017-12-25T08:15:16.079Z,9.66
2017-12-25T08:16:15.834Z,9.76
2017-12-25T08:17:15.833Z,9.74
2017-12-25T08:18:16.132Z,9.72
2017-12-25T08:19:16.142Z,9.62
2017-12-25T08:20:16.153Z,9.74
2017-12-25T08:21:16.162Z,9.76
2017-12-25T08:22:16.180Z,9.73
2017-12-25T08:23:16.251Z,9.66
2017-12-25T08:24:15.929Z,9.69
2017-12-25T08:25:16.226Z,9.73
2017-12-25T08:26:16.012Z,9.66
2017-12-25T08:27:16.249Z,9.74
2017-12-25T08:28:15.988Z,9.82
2017-12-25T08:29:16.280Z,9.74
2017-12-25T08:30:16.294Z,9.77
2017-12-25T08:31:16.031Z,9.76
2017-12-25T08:32:16.335Z,9.68
2017-12-25T08:33:16.336Z,9.65
2017-12-25T08:34:16.352Z,9.69
2017-12-25T08:35:16.379Z,9.66
2017-12-25T08:36:16.098Z,9.74
2017-12-25T08:37:16.390Z,9.66
2017-12-25T08:38:16.473Z,9.69
2017-12-25T08:39:16.141Z,9.68
2017-12-25T08:40:16.434Z,9.69
2017-12-25T08:41:15.893Z,9.74
2017-12-25T08:42:16.469Z,9.69
2017-12-25T08:43:16.200Z,9.62
2017-12-25T08:44:16.219Z,9.69
2017-12-25T08:45:16.557Z,9.74
2017-12-25T08:46:16.241Z,9.77
2017-12-25T08:47:16.537Z,9.69
2017-12-25T08:48:16.554Z,9.77
2017-12-25T08:49:16.571Z,9.79
2017-12-25T08:50:16.300Z,9.73
2017-12-25T08:51:16.313Z,9.66
2017-12-25T08:52:16.608Z,9.84
2017-12-25T08:53:16.627Z,9.77
2017-12-25T08:54:16.631Z,9.83
2017-12-25T08:55:16.382Z,9.87
2017-12-25T08:56:16.388Z,9.76
2017-12-25T08:57:16.676Z,9.74
2017-12-25T08:58:16.688Z,9.76
2017-12-25T08:59:16.425Z,9.73
2017-12-25T09:00:16.718Z,9.73
2017-12-25T09:01:16.733Z,9.82
2017-12-25T09:02:16.753Z,9.73
2017-12-25T09:03:16.759Z,9.72
2017-12-25T09:04:16.509Z,9.76
2017-12-25T09:05:16.789Z,9.84
2017-12-25T09:06:16.805Z,9.73
2017-12-25T09:07:16.551Z,9.72
2017-12-25T09:08:16.831Z,9.76
2017-12-25T09:09:16.886Z,9.73
2017-12-25T09:10:16.861Z,9.79
2017-12-25T09:11:16.870Z,9.8
2017-12-25T09:12:16.890Z,9.76
2017-12-25T09:13:16.652Z,9.79
2017-12-25T09:14:16.916Z,9.84
2017-12-25T09:15:16.381Z,9.79
2017-12-25T09:16:16.949Z,9.83
2017-12-25T09:17:16.961Z,9.8
2017-12-25T09:18:16.978Z,9.82
2017-12-25T09:19:16.989Z,9.86
2017-12-25T09:20:17.008Z,9.83
2017-12-25T09:21:16.744Z,9.8
2017-12-25T09:22:17.030Z,9.89
2017-12-25T09:23:17.044Z,9.91
2017-12-25T09:24:16.788Z,9.91
2017-12-25T09:25:16.802Z,9.89
2017-12-25T09:26:17.089Z,9.89
2017-12-25T09:27:16.549Z,9.95
2017-12-25T09:28:17.117Z,9.95
2017-12-25T09:29:17.131Z,9.94
2017-12-25T09:30:16.869Z,9.94
2017-12-25T09:31:17.170Z,10.01
2017-12-25T09:32:17.174Z,9.97
2017-12-25T09:33:16.910Z,9.95
2017-12-25T09:34:17.197Z,9.95
2017-12-25T09:35:17.219Z,9.95
2017-12-25T09:36:16.952Z,9.94
2017-12-25T09:37:16.967Z,9.94
2017-12-25T09:38:16.985Z,9.97
2017-12-25T09:39:16.997Z,10.05
2017-12-25T09:40:17.014Z,9.94
2017-12-25T09:41:17.030Z,9.99
2017-12-25T09:42:17.316Z,10.01
2017-12-25T09:43:17.334Z,9.98
2017-12-25T09:44:17.067Z,9.99
2017-12-25T09:45:17.085Z,10.04
2017-12-25T09:46:17.097Z,10.07
2017-12-25T09:47:17.387Z,9.97
2017-12-25T09:48:17.400Z,9.98
2017-12-25T09:49:17.143Z,10.02
2017-12-25T09:50:17.436Z,10.09
2017-12-25T09:51:17.444Z,10.07
2017-12-25T09:52:17.186Z,10.09
2017-12-25T09:53:17.200Z,9.94
2017-12-25T09:54:17.491Z,9.94
2017-12-25T09:55:17.513Z,9.95
2017-12-25T09:56:17.526Z,10.16
2017-12-25T09:57:17.528Z,10.13
2017-12-25T09:58:17.272Z,10.13
2017-12-25T09:59:17.567Z,10.01
2017-12-25T10:00:17.301Z,10.09
2017-12-25T10:01:17.319Z,10.12
2017-12-25T10:02:17.329Z,10.15
2017-12-25T10:03:17.340Z,10.07
2017-12-25T10:04:17.698Z,10.07
2017-12-25T10:05:17.650Z,10.07
2017-12-25T10:06:17.676Z,10.09
2017-12-25T10:07:17.399Z,10.2
2017-12-25T10:08:17.688Z,10.13
2017-12-25T10:09:17.707Z,10.13
2017-12-25T10:10:17.723Z,10.13
2017-12-25T10:11:17.736Z,10.17
2017-12-25T10:12:17.753Z,10.17
2017-12-25T10:13:17.494Z,10.15
2017-12-25T10:14:17.506Z,10.09
2017-12-25T10:15:17.793Z,10.09
2017-12-25T10:16:17.805Z,10.16
2017-12-25T10:17:17.544Z,10.2
2017-12-25T10:18:17.559Z,10.26
2017-12-25T10:19:17.627Z,10.23
2017-12-25T10:20:17.587Z,10.22
2017-12-25T10:21:17.877Z,10.15
2017-12-25T10:22:17.893Z,10.28
2017-12-25T10:23:17.914Z,10.25
2017-12-25T10:24:17.974Z,10.2
2017-12-25T10:25:17.937Z,10.25
2017-12-25T10:26:17.951Z,10.31
2017-12-25T10:27:17.972Z,10.23
2017-12-25T10:28:17.982Z,10.33
2017-12-25T10:29:17.993Z,10.31
2017-12-25T10:30:18.021Z,10.31
2017-12-25T10:31:18.027Z,10.28
2017-12-25T10:32:18.180Z,10.38
2017-12-25T10:33:17.780Z,10.37
2017-12-25T10:34:18.068Z,10.4
2017-12-25T10:35:17.806Z,10.4
2017-12-25T10:36:18.098Z,10.34
2017-12-25T10:37:18.119Z,10.42
2017-12-25T10:38:18.189Z,10.37
2017-12-25T10:39:17.866Z,10.44
2017-12-25T10:40:18.158Z,10.4
2017-12-25T10:41:17.897Z,10.38
2017-12-25T10:42:18.189Z,10.42
2017-12-25T10:43:17.925Z,10.42
2017-12-25T10:44:17.946Z,10.49
2017-12-25T10:45:18.229Z,10.59
2017-12-25T10:46:17.975Z,10.51
2017-12-25T10:47:18.257Z,10.59
2017-12-25T10:48:18.273Z,10.59
2017-12-25T10:49:18.016Z,10.53
2017-12-25T10:50:18.302Z,10.54
2017-12-25T10:51:18.322Z,10.59
2017-12-25T10:52:18.336Z,10.57
2017-12-25T10:53:18.344Z,10.59
2017-12-25T10:54:18.461Z,10.53
2017-12-25T10:55:18.100Z,10.56
2017-12-25T10:56:18.399Z,10.51
2017-12-25T10:57:18.137Z,10.54
2017-12-25T10:58:18.142Z,10.54
2017-12-25T10:59:18.159Z,10.56
2017-12-25T11:00:18.173Z,10.57
2017-12-25T11:01:18.187Z,10.53
2017-12-25T11:02:18.210Z,10.57
2017-12-25T11:03:18.499Z,10.57
2017-12-25T11:04:18.512Z,10.54
2017-12-25T11:05:18.567Z,10.48
2017-12-25T11:06:17.988Z,10.59
2017-12-25T11:07:18.553Z,10.56
2017-12-25T11:08:18.578Z,10.56
2017-12-25T11:09:18.638Z,10.48
2017-12-25T11:10:18.601Z,10.56
2017-12-25T11:11:18.667Z,10.48
2017-12-25T11:12:18.631Z,10.56
2017-12-25T11:13:18.644Z,10.54
2017-12-25T11:14:18.431Z,10.56
2017-12-25T11:15:18.671Z,10.53
2017-12-25T11:16:18.688Z,10.57
2017-12-25T11:17:18.427Z,10.54
2017-12-25T11:18:18.770Z,10.59
2017-12-25T11:19:18.743Z,10.59
2017-12-25T11:20:18.472Z,10.57
2017-12-25T11:21:18.759Z,10.57
2017-12-25T11:22:18.786Z,10.57
2017-12-25T11:23:18.794Z,10.53
2017-12-25T11:24:18.813Z,10.48
2017-12-25T11:25:18.827Z,10.44
2017-12-25T11:26:18.839Z,10.49
2017-12-25T11:27:18.577Z,10.53
2017-12-25T11:28:18.871Z,10.53
2017-12-25T11:29:18.931Z,10.49
2017-12-25T11:30:18.899Z,10.56
2017-12-25T11:31:18.908Z,10.53
2017-12-25T11:32:18.927Z,10.54
2017-12-25T11:33:18.662Z,10.54
2017-12-25T11:34:18.957Z,10.49
2017-12-25T11:35:18.967Z,10.57
2017-12-25T11:36:18.987Z,10.46
2017-12-25T11:37:19.006Z,10.49
2017-12-25T11:38:19.017Z,10.54
2017-12-25T11:39:18.803Z,10.54
2017-12-25T11:40:19.047Z,10.54
2017-12-25T11:41:19.061Z,10.49
2017-12-25T11:42:19.074Z,10.49
2017-12-25T11:43:19.092Z,10.49
2017-12-25T11:44:19.104Z,10.53
2017-12-25T11:45:18.847Z,10.53
2017-12-25T11:46:18.867Z,10.51
2017-12-25T11:47:19.161Z,10.49
2017-12-25T11:48:19.165Z,10.49
2017-12-25T11:49:18.898Z,10.51
2017-12-25T11:50:19.192Z,10.48
2017-12-25T11:51:18.989Z,10.48
2017-12-25T11:52:19.218Z,10.46
2017-12-25T11:53:19.232Z,10.46
2017-12-25T11:54:19.315Z,10.46
2017-12-25T11:55:18.994Z,10.46
2017-12-25T11:56:19.285Z,10.37
2017-12-25T11:57:18.784Z,10.41
2017-12-25T11:58:19.396Z,10.4
2017-12-25T11:59:19.089Z,10.51
2017-12-25T12:00:19.343Z,10.46
2017-12-25T12:01:19.355Z,10.46
2017-12-25T12:02:19.369Z,10.46
2017-12-25T12:03:19.442Z,10.38
2017-12-25T12:04:19.398Z,10.41
2017-12-25T12:05:19.414Z,10.4
2017-12-25T12:06:19.424Z,10.41
2017-12-25T12:07:19.439Z,10.49
2017-12-25T12:08:19.461Z,10.4
2017-12-25T12:09:19.531Z,10.41
2017-12-25T12:10:19.494Z,10.48
2017-12-25T12:11:19.509Z,10.42
2017-12-25T12:12:19.243Z,10.41
2017-12-25T12:13:19.536Z,10.44
2017-12-25T12:14:19.554Z,10.44
2017-12-25T12:15:19.560Z,10.51
2017-12-25T12:16:19.574Z,10.42
2017-12-25T12:17:19.588Z,10.48
2017-12-25T12:18:19.602Z,10.41
2017-12-25T12:19:19.345Z,10.42
2017-12-25T12:20:19.361Z,10.41
2017-12-25T12:21:19.650Z,10.44
2017-12-25T12:22:19.666Z,10.41
2017-12-25T12:23:19.683Z,10.44
2017-12-25T12:24:19.415Z,10.41
2017-12-25T12:25:19.706Z,10.48
2017-12-25T12:26:19.790Z,10.51
2017-12-25T12:27:19.747Z,10.49
2017-12-25T12:28:19.758Z,10.44
2017-12-25T12:29:19.773Z,10.51
2017-12-25T12:30:19.783Z,10.53
2017-12-25T12:31:19.805Z,10.53
2017-12-25T12:32:19.821Z,10.54
2017-12-25T12:33:19.823Z,10.57
2017-12-25T12:34:19.567Z,10.54
2017-12-25T12:35:19.856Z,10.54
2017-12-25T12:36:19.880Z,10.57
2017-12-25T12:37:19.886Z,10.59
2017-12-25T12:38:19.901Z,10.56
2017-12-25T12:39:19.914Z,10.54
2017-12-25T12:40:19.656Z,10.59
2017-12-25T12:41:19.960Z,10.57
2017-12-25T12:42:19.968Z,10.56
2017-12-25T12:43:19.973Z,10.57
2017-12-25T12:44:19.987Z,10.54
2017-12-25T12:45:20.002Z,10.57
2017-12-25T12:46:19.472Z,10.54
2017-12-25T12:47:20.041Z,10.57
2017-12-25T12:48:20.051Z,10.54
2017-12-25T12:49:20.073Z,10.54
2017-12-25T12:50:20.089Z,10.49
2017-12-25T12:51:19.822Z,10.6
2017-12-25T12:52:20.113Z,10.54
2017-12-25T12:53:20.126Z,10.56
2017-12-25T12:54:19.862Z,10.56
2017-12-25T12:55:20.156Z,10.56
2017-12-25T12:56:20.174Z,10.54
2017-12-25T12:57:20.186Z,10.51
2017-12-25T12:58:19.923Z,10.59
2017-12-25T12:59:20.210Z,10.51
2017-12-25T13:00:19.953Z,10.54
2017-12-25T13:01:19.968Z,10.54
2017-12-25T13:02:20.260Z,10.56
2017-12-25T13:03:20.000Z,10.53
2017-12-25T13:04:19.739Z,10.57
2017-12-25T13:05:20.359Z,10.53
2017-12-25T13:06:20.316Z,10.56